sensor_id;sensor_type;location;lat;lon;timestamp;pressure;altitude;pressure_sealevel;temperature;humidity
31337;BME280;22846;42.654;23.314;2023-02-22T00:00:35;94480.25;;;24.12;53.41
31337;BME280;22846;42.654;23.314;2023-02-22T00:03:14;94483.44;;;24.10;53.59
31337;BME280;22846;42.654;23.314;2023-02-22T00:05:44;94471.56;;;24.04;53.75
31337;BME280;22846;42.654;23.314;2023-02-22T00:08:15;94491.28;;;24.08;53.62
31337;BME280;22846;42.654;23.314;2023-02-22T00:10:40;94458.78;;;23.89;53.25
31337;BME280;22846;42.654;23.314;2023-02-22T00:13:08;94489.75;;;24.07;53.29
31337;BME280;22846;42.654;23.314;2023-02-22T00:15:34;94480.16;;;24.03;53.39
31337;BME280;22846;42.654;23.314;2023-02-22T00:18:02;94491.00;;;24.06;53.46
31337;BME280;22846;42.654;23.314;2023-02-22T00:20:28;94484.75;;;24.06;53.73
31337;BME280;22846;42.654;23.314;2023-02-22T00:22:53;94487.94;;;24.04;53.39
31337;BME280;22846;42.654;23.314;2023-02-22T00:25:22;94486.41;;;24.03;53.48
31337;BME280;22846;42.654;23.314;2023-02-22T00:27:49;94487.16;;;24.04;53.84
31337;BME280;22846;42.654;23.314;2023-02-22T00:30:26;94480.59;;;24.01;53.26
31337;BME280;22846;42.654;23.314;2023-02-22T00:32:54;94481.47;;;23.98;53.83
31337;BME280;22846;42.654;23.314;2023-02-22T00:35:22;94484.13;;;24.02;53.62
31337;BME280;22846;42.654;23.314;2023-02-22T00:37:49;94477.88;;;24.01;53.45
31337;BME280;22846;42.654;23.314;2023-02-22T00:40:20;94467.41;;;24.00;53.50
31337;BME280;22846;42.654;23.314;2023-02-22T00:42:46;94463.16;;;23.99;53.74
31337;BME280;22846;42.654;23.314;2023-02-22T00:45:15;94463.16;;;23.99;53.42
31337;BME280;22846;42.654;23.314;2023-02-22T00:47:41;94460.88;;;23.97;53.32
31337;BME280;22846;42.654;23.314;2023-02-22T00:50:06;94462.38;;;23.98;53.44
31337;BME280;22846;42.654;23.314;2023-02-22T00:52:32;94461.63;;;23.98;53.48
31337;BME280;22846;42.654;23.314;2023-02-22T00:54:57;94464.34;;;23.98;53.63
31337;BME280;22846;42.654;23.314;2023-02-22T00:57:24;94460.88;;;23.97;53.60
31337;BME280;22846;42.654;23.314;2023-02-22T00:59:49;94453.09;;;23.96;53.40
31337;BME280;22846;42.654;23.314;2023-02-22T01:02:15;94452.34;;;23.95;53.30
31337;BME280;22846;42.654;23.314;2023-02-22T01:04:41;94450.81;;;23.94;53.70
31337;BME280;22846;42.654;23.314;2023-02-22T01:07:07;94449.28;;;23.93;53.32
31337;BME280;22846;42.654;23.314;2023-02-22T01:09:33;94426.59;;;23.84;53.70
31337;BME280;22846;42.654;23.314;2023-02-22T01:11:59;94436.84;;;23.92;53.75
31337;BME280;22846;42.654;23.314;2023-02-22T01:14:26;94436.84;;;23.92;53.30
31337;BME280;22846;42.654;23.314;2023-02-22T01:16:53;94425.59;;;23.91;53.77
31337;BME280;22846;42.654;23.314;2023-02-22T01:19:19;94429.09;;;23.91;53.65
31337;BME280;22846;42.654;23.314;2023-02-22T01:21:46;94426.03;;;23.89;53.46
31337;BME280;22846;42.654;23.314;2023-02-22T01:24:12;94433.03;;;23.90;53.36
31337;BME280;22846;42.654;23.314;2023-02-22T01:26:48;94424.84;;;23.90;53.76
31337;BME280;22846;42.654;23.314;2023-02-22T01:29:14;94433.47;;;23.89;53.27
31337;BME280;22846;42.654;23.314;2023-02-22T01:31:41;94416.44;;;23.85;53.49
31337;BME280;22846;42.654;23.314;2023-02-22T01:34:09;94425.28;;;23.89;53.53
31337;BME280;22846;42.654;23.314;2023-02-22T01:36:35;94415.56;;;23.88;53.40
31337;BME280;22846;42.654;23.314;2023-02-22T01:39:00;94423.75;;;23.88;53.78
31337;BME280;22846;42.654;23.314;2023-02-22T01:41:25;94410.63;;;23.83;53.42
31337;BME280;22846;42.654;23.314;2023-02-22T01:43:51;94422.22;;;23.87;53.69
31337;BME280;22846;42.654;23.314;2023-02-22T01:46:25;94434.34;;;23.86;53.42
31337;BME280;22846;42.654;23.314;2023-02-22T01:48:55;94431.59;;;23.86;53.64
31337;BME280;22846;42.654;23.314;2023-02-22T01:51:25;94432.81;;;23.85;53.68
31337;BME280;22846;42.654;23.314;2023-02-22T01:53:59;94435.19;;;23.83;53.31
31337;BME280;22846;42.654;23.314;2023-02-22T01:56:27;94442.19;;;23.84;53.42
31337;BME280;22846;42.654;23.314;2023-02-22T01:59:02;94440.66;;;23.83;53.47
31337;BME280;22846;42.654;23.314;2023-02-22T02:01:31;94434.91;;;23.81;53.54
31337;BME280;22846;42.654;23.314;2023-02-22T02:03:59;94446.91;;;23.83;53.60
31337;BME280;22846;42.654;23.314;2023-02-22T02:06:27;94434.44;;;23.82;53.11
31337;BME280;22846;42.654;23.314;2023-02-22T02:09:11;94436.41;;;23.82;53.63
31337;BME280;22846;42.654;23.314;2023-02-22T02:11:39;94431.38;;;23.80;53.41
31337;BME280;22846;42.654;23.314;2023-02-22T02:14:06;94432.16;;;23.81;53.31
31337;BME280;22846;42.654;23.314;2023-02-22T02:16:47;94433.03;;;23.78;53.48
31337;BME280;22846;42.654;23.314;2023-02-22T02:33:32;94429.50;;;23.65;53.52
31337;BME280;22846;42.654;23.314;2023-02-22T02:40:58;94456.50;;;23.75;53.57
31337;BME280;22846;42.654;23.314;2023-02-22T02:48:42;94455.06;;;23.71;53.65
31337;BME280;22846;42.654;23.314;2023-02-22T02:51:12;94460.81;;;23.73;53.40
31337;BME280;22846;42.654;23.314;2023-02-22T02:53:42;94449.72;;;23.67;53.06
31337;BME280;22846;42.654;23.314;2023-02-22T02:56:09;94457.78;;;23.71;53.28
31337;BME280;22846;42.654;23.314;2023-02-22T02:58:46;94463.25;;;23.71;53.55
31337;BME280;22846;42.654;23.314;2023-02-22T03:01:19;94460.50;;;23.71;53.32
31337;BME280;22846;42.654;23.314;2023-02-22T03:04:20;94468.69;;;23.71;53.64
31337;BME280;22846;42.654;23.314;2023-02-22T03:09:45;94458.19;;;23.69;53.20
31337;BME280;22846;42.654;23.314;2023-02-22T03:17:20;94463.34;;;23.67;53.48
31337;BME280;22846;42.654;23.314;2023-02-22T03:19:52;94460.28;;;23.65;53.25
31337;BME280;22846;42.654;23.314;2023-02-22T03:22:26;94462.56;;;23.67;53.68
31337;BME280;22846;42.654;23.314;2023-02-22T03:25:04;94450.91;;;23.66;53.52
31337;BME280;22846;42.654;23.314;2023-02-22T03:30:18;94457.56;;;23.65;53.40
31337;BME280;22846;42.654;23.314;2023-02-22T03:32:52;94460.28;;;23.65;53.43
31337;BME280;22846;42.654;23.314;2023-02-22T03:35:22;94460.28;;;23.65;53.29
31337;BME280;22846;42.654;23.314;2023-02-22T03:37:55;94462.22;;;23.65;53.42
31337;BME280;22846;42.654;23.314;2023-02-22T03:40:28;94458.75;;;23.64;53.38
31337;BME280;22846;42.654;23.314;2023-02-22T03:42:59;94462.22;;;23.65;53.16
31337;BME280;22846;42.654;23.314;2023-02-22T03:45:28;94451.75;;;23.63;53.13
31337;BME280;22846;42.654;23.314;2023-02-22T03:48:13;94454.59;;;23.60;53.52
31337;BME280;22846;42.654;23.314;2023-02-22T03:50:41;94455.69;;;23.62;53.15
31337;BME280;22846;42.654;23.314;2023-02-22T03:53:07;94442.38;;;23.52;53.58
31337;BME280;22846;42.654;23.314;2023-02-22T03:55:33;94457.34;;;23.60;53.44
31337;BME280;22846;42.654;23.314;2023-02-22T03:58:01;94453.75;;;23.63;53.51
31337;BME280;22846;42.654;23.314;2023-02-22T04:00:31;94455.69;;;23.62;53.20
31337;BME280;22846;42.654;23.314;2023-02-22T04:02:57;94457.66;;;23.62;53.47
31337;BME280;22846;42.654;23.314;2023-02-22T04:05:22;94449.91;;;23.60;53.21
31337;BME280;22846;42.654;23.314;2023-02-22T04:07:51;94451.66;;;23.67;53.33
31337;BME280;22846;42.654;23.314;2023-02-22T04:10:17;94449.84;;;23.89;52.53
31337;BME280;22846;42.654;23.314;2023-02-22T04:12:43;94444.88;;;24.08;52.04
31337;BME280;22846;42.654;23.314;2023-02-22T04:15:11;94445.72;;;24.30;51.58
31337;BME280;22846;42.654;23.314;2023-02-22T04:17:37;94445.03;;;24.51;51.10
31337;BME280;22846;42.654;23.314;2023-02-22T04:20:03;94443.66;;;24.68;50.67
31337;BME280;22846;42.654;23.314;2023-02-22T04:22:30;94437.97;;;24.75;50.45
31337;BME280;22846;42.654;23.314;2023-02-22T04:24:55;94438.88;;;24.93;50.56
31337;BME280;22846;42.654;23.314;2023-02-22T04:27:21;94449.88;;;25.02;50.30
31337;BME280;22846;42.654;23.314;2023-02-22T04:29:46;94451.81;;;25.14;50.11
31337;BME280;22846;42.654;23.314;2023-02-22T04:32:11;94453.06;;;25.22;49.59
31337;BME280;22846;42.654;23.314;2023-02-22T04:34:37;94446.56;;;25.29;49.34
31337;BME280;22846;42.654;23.314;2023-02-22T04:37:02;94457.25;;;25.36;49.49
31337;BME280;22846;42.654;23.314;2023-02-22T04:39:28;94464.41;;;25.42;49.07
31337;BME280;22846;42.654;23.314;2023-02-22T04:41:53;94463.41;;;25.49;48.96
31337;BME280;22846;42.654;23.314;2023-02-22T04:44:19;94446.97;;;25.49;49.08
31337;BME280;22846;42.654;23.314;2023-02-22T04:46:44;94461.03;;;25.60;48.96
31337;BME280;22846;42.654;23.314;2023-02-22T04:49:10;94460.44;;;25.64;48.95
31337;BME280;22846;42.654;23.314;2023-02-22T04:51:36;94449.94;;;25.63;48.67
31337;BME280;22846;42.654;23.314;2023-02-22T04:54:02;94450.75;;;25.72;48.61
31337;BME280;22846;42.654;23.314;2023-02-22T04:56:27;94458.41;;;25.77;48.47
31337;BME280;22846;42.654;23.314;2023-02-22T04:58:53;94459.81;;;25.82;48.86
31337;BME280;22846;42.654;23.314;2023-02-22T05:01:18;94460.41;;;25.86;48.93
31337;BME280;22846;42.654;23.314;2023-02-22T05:03:44;94462.72;;;25.87;48.91
31337;BME280;22846;42.654;23.314;2023-02-22T05:06:09;94447.50;;;25.86;49.06
31337;BME280;22846;42.654;23.314;2023-02-22T05:08:37;94452.66;;;25.84;49.18
31337;BME280;22846;42.654;23.314;2023-02-22T05:11:02;94452.66;;;25.84;49.06
31337;BME280;22846;42.654;23.314;2023-02-22T05:13:29;94462.97;;;25.80;49.14
31337;BME280;22846;42.654;23.314;2023-02-22T05:15:55;94459.28;;;25.74;48.87
31337;BME280;22846;42.654;23.314;2023-02-22T05:18:20;94461.59;;;25.76;48.52
31337;BME280;22846;42.654;23.314;2023-02-22T05:20:45;94470.69;;;25.73;48.56
31337;BME280;22846;42.654;23.314;2023-02-22T05:23:11;94475.09;;;25.70;48.42
31337;BME280;22846;42.654;23.314;2023-02-22T05:25:36;94470.63;;;25.64;48.69
31337;BME280;22846;42.654;23.314;2023-02-22T05:28:07;94477.63;;;25.65;48.36
31337;BME280;22846;42.654;23.314;2023-02-22T05:30:34;94482.78;;;25.63;48.57
31337;BME280;22846;42.654;23.314;2023-02-22T05:33:04;94495.69;;;25.62;48.57
31337;BME280;22846;42.654;23.314;2023-02-22T05:35:29;94491.88;;;25.60;48.51
31337;BME280;22846;42.654;23.314;2023-02-22T05:37:55;94493.88;;;25.60;48.70
31337;BME280;22846;42.654;23.314;2023-02-22T05:40:24;94501.13;;;25.54;43.93
31337;BME280;22846;42.654;23.314;2023-02-22T05:42:51;94506.84;;;25.47;44.38
31337;BME280;22846;42.654;23.314;2023-02-22T05:45:19;94511.06;;;25.39;46.55
31337;BME280;22846;42.654;23.314;2023-02-22T05:47:45;94511.31;;;25.32;47.11
31337;BME280;22846;42.654;23.314;2023-02-22T05:50:12;94508.06;;;25.24;47.50
31337;BME280;22846;42.654;23.314;2023-02-22T05:52:38;94509.13;;;25.18;47.54
31337;BME280;22846;42.654;23.314;2023-02-22T05:55:04;94513.59;;;25.12;48.03
31337;BME280;22846;42.654;23.314;2023-02-22T05:57:30;94505.63;;;25.05;48.06
31337;BME280;22846;42.654;23.314;2023-02-22T05:59:56;94513.97;;;25.01;48.53
31337;BME280;22846;42.654;23.314;2023-02-22T06:02:21;94512.09;;;24.98;49.06
31337;BME280;22846;42.654;23.314;2023-02-22T06:04:46;94514.22;;;24.94;49.10
31337;BME280;22846;42.654;23.314;2023-02-22T06:07:13;94519.03;;;24.90;48.95
31337;BME280;22846;42.654;23.314;2023-02-22T06:09:39;94522.19;;;24.89;49.11
31337;BME280;22846;42.654;23.314;2023-02-22T06:12:05;94521.13;;;24.86;48.82
31337;BME280;22846;42.654;23.314;2023-02-22T06:14:30;94524.28;;;24.85;48.92
31337;BME280;22846;42.654;23.314;2023-02-22T06:16:56;94523.97;;;24.83;48.51
31337;BME280;22846;42.654;23.314;2023-02-22T06:19:22;94527.59;;;24.80;48.78
31337;BME280;22846;42.654;23.314;2023-02-22T06:21:52;94524.41;;;24.81;48.61
31337;BME280;22846;42.654;23.314;2023-02-22T06:24:19;94519.38;;;24.80;48.66
31337;BME280;22846;42.654;23.314;2023-02-22T06:26:44;94519.72;;;24.82;48.41
31337;BME280;22846;42.654;23.314;2023-02-22T06:29:09;94516.00;;;24.76;48.55
31337;BME280;22846;42.654;23.314;2023-02-22T06:31:35;94525.59;;;24.80;48.48
31337;BME280;22846;42.654;23.314;2023-02-22T06:34:01;94516.66;;;24.80;48.74
31337;BME280;22846;42.654;23.314;2023-02-22T06:36:26;94509.34;;;24.77;48.47
31337;BME280;22846;42.654;23.314;2023-02-22T06:38:52;94514.38;;;24.78;48.36
31337;BME280;22846;42.654;23.314;2023-02-22T06:41:17;94513.59;;;24.78;48.69
31337;BME280;22846;42.654;23.314;2023-02-22T06:43:43;94516.66;;;24.80;48.52
31337;BME280;22846;42.654;23.314;2023-02-22T06:46:10;94515.13;;;24.79;48.63
31337;BME280;22846;42.654;23.314;2023-02-22T06:48:36;94514.66;;;24.80;48.49
31337;BME280;22846;42.654;23.314;2023-02-22T06:51:03;94515.00;;;24.82;48.84
31337;BME280;22846;42.654;23.314;2023-02-22T06:53:28;94506.94;;;24.79;48.49
31337;BME280;22846;42.654;23.314;2023-02-22T06:55:54;94523.53;;;24.84;48.51
31337;BME280;22846;42.654;23.314;2023-02-22T06:58:19;94523.84;;;24.86;48.68
31337;BME280;22846;42.654;23.314;2023-02-22T07:00:45;94514.88;;;24.86;48.58
31337;BME280;22846;42.654;23.314;2023-02-22T07:03:10;94522.66;;;24.87;48.72
31337;BME280;22846;42.654;23.314;2023-02-22T07:05:36;94516.66;;;24.80;49.10
31337;BME280;22846;42.654;23.314;2023-02-22T07:08:06;94522.19;;;24.89;48.85
31337;BME280;22846;42.654;23.314;2023-02-22T07:10:33;94528.00;;;24.91;48.55
31337;BME280;22846;42.654;23.314;2023-02-22T07:13:00;94524.06;;;24.92;48.79
31337;BME280;22846;42.654;23.314;2023-02-22T07:15:27;94517.81;;;24.91;48.98
31337;BME280;22846;42.654;23.314;2023-02-22T07:17:53;94512.81;;;24.90;48.63
31337;BME280;22846;42.654;23.314;2023-02-22T07:20:20;94527.88;;;24.94;48.77
31337;BME280;22846;42.654;23.314;2023-02-22T07:22:46;94524.81;;;24.92;48.88
31337;BME280;22846;42.654;23.314;2023-02-22T07:25:12;94530.94;;;24.96;49.01
31337;BME280;22846;42.654;23.314;2023-02-22T07:27:39;94528.63;;;24.95;48.69
31337;BME280;22846;42.654;23.314;2023-02-22T07:30:09;94525.78;;;24.98;48.56
31337;BME280;22846;42.654;23.314;2023-02-22T07:32:41;94522.28;;;24.98;49.02
31337;BME280;22846;42.654;23.314;2023-02-22T07:35:20;94532.34;;;25.01;48.87
31337;BME280;22846;42.654;23.314;2023-02-22T07:37:46;94525.66;;;25.02;48.53
31337;BME280;22846;42.654;23.314;2023-02-22T07:40:13;94525.22;;;25.03;48.55
31337;BME280;22846;42.654;23.314;2023-02-22T07:42:58;94523.69;;;25.02;48.84
31337;BME280;22846;42.654;23.314;2023-02-22T07:45:27;94519.28;;;25.05;48.53
31337;BME280;22846;42.654;23.314;2023-02-22T07:47:53;94516.88;;;25.07;48.78
31337;BME280;22846;42.654;23.314;2023-02-22T07:50:20;94508.69;;;25.07;48.62
31337;BME280;22846;42.654;23.314;2023-02-22T07:52:47;94523.09;;;25.07;48.48
31337;BME280;22846;42.654;23.314;2023-02-22T07:55:19;94516.44;;;25.08;48.75
31337;BME280;22846;42.654;23.314;2023-02-22T07:57:45;94510.56;;;25.10;48.80
31337;BME280;22846;42.654;23.314;2023-02-22T08:00:12;94506.59;;;25.11;48.70
31337;BME280;22846;42.654;23.314;2023-02-22T08:02:42;94509.34;;;25.11;48.42
31337;BME280;22846;42.654;23.314;2023-02-22T08:05:09;94514.06;;;25.10;48.63
31337;BME280;22846;42.654;23.314;2023-02-22T08:07:36;94505.09;;;25.10;48.35
31337;BME280;22846;42.654;23.314;2023-02-22T08:10:03;94511.66;;;25.12;48.81
31337;BME280;22846;42.654;23.314;2023-02-22T08:12:31;94499.94;;;25.12;48.61
31337;BME280;22846;42.654;23.314;2023-02-22T08:14:57;94504.97;;;25.13;48.25
31337;BME280;22846;42.654;23.314;2023-02-22T08:17:22;94497.53;;;25.14;48.28
31337;BME280;22846;42.654;23.314;2023-02-22T08:19:48;94506.94;;;25.13;48.45
31337;BME280;22846;42.654;23.314;2023-02-22T08:22:13;94501.78;;;25.15;48.29
31337;BME280;22846;42.654;23.314;2023-02-22T08:24:39;94510.00;;;25.15;48.38
31337;BME280;22846;42.654;23.314;2023-02-22T08:27:05;94497.53;;;25.14;48.55
31337;BME280;22846;42.654;23.314;2023-02-22T08:29:30;94510.75;;;25.15;48.47
31337;BME280;22846;42.654;23.314;2023-02-22T08:32:00;94508.78;;;25.16;48.46
31337;BME280;22846;42.654;23.314;2023-02-22T08:34:26;94484.41;;;25.09;48.36
31337;BME280;22846;42.654;23.314;2023-02-22T08:36:52;94495.84;;;25.16;48.27
31337;BME280;22846;42.654;23.314;2023-02-22T08:39:17;94502.88;;;25.17;48.30
31337;BME280;22846;42.654;23.314;2023-02-22T08:41:43;94491.91;;;25.17;48.48
31337;BME280;22846;42.654;23.314;2023-02-22T08:44:09;94492.69;;;25.18;48.41
31337;BME280;22846;42.654;23.314;2023-02-22T08:46:34;94487.78;;;25.13;47.98
31337;BME280;22846;42.654;23.314;2023-02-22T08:48:59;94499.66;;;25.19;48.27
31337;BME280;22846;42.654;23.314;2023-02-22T08:51:25;94483.53;;;25.12;48.41
31337;BME280;22846;42.654;23.314;2023-02-22T08:53:51;94489.66;;;25.16;48.31
31337;BME280;22846;42.654;23.314;2023-02-22T08:56:17;94469.94;;;25.08;48.16
31337;BME280;22846;42.654;23.314;2023-02-22T08:58:43;94487.66;;;25.16;48.39
31337;BME280;22846;42.654;23.314;2023-02-22T09:01:09;94487.97;;;25.18;48.04
31337;BME280;22846;42.654;23.314;2023-02-22T09:03:34;94484.03;;;25.19;48.05
31337;BME280;22846;42.654;23.314;2023-02-22T09:05:59;94484.03;;;25.19;48.07
31337;BME280;22846;42.654;23.314;2023-02-22T09:08:25;94489.50;;;25.19;47.94
31337;BME280;22846;42.654;23.314;2023-02-22T09:10:50;94479.31;;;25.20;48.21
31337;BME280;22846;42.654;23.314;2023-02-22T09:13:16;94477.78;;;25.19;48.33
31337;BME280;22846;42.654;23.314;2023-02-22T09:15:41;94480.22;;;25.17;48.30
31337;BME280;22846;42.654;23.314;2023-02-22T09:18:09;94483.25;;;25.19;47.97
31337;BME280;22846;42.654;23.314;2023-02-22T09:20:35;94480.53;;;25.19;48.09
31337;BME280;22846;42.654;23.314;2023-02-22T09:23:01;94472.31;;;25.19;48.34
31337;BME280;22846;42.654;23.314;2023-02-22T09:25:28;94472.31;;;25.19;48.33
31337;BME280;22846;42.654;23.314;2023-02-22T09:27:55;94473.22;;;25.16;48.26
31337;BME280;22846;42.654;23.314;2023-02-22T09:30:27;94466.84;;;25.19;47.94
31337;BME280;22846;42.654;23.314;2023-02-22T09:32:58;94467.63;;;25.19;48.07
31337;BME280;22846;42.654;23.314;2023-02-22T09:35:24;94473.84;;;25.20;48.07
31337;BME280;22846;42.654;23.314;2023-02-22T09:38:01;94451.25;;;25.07;48.15
31337;BME280;22846;42.654;23.314;2023-02-22T09:40:29;94457.91;;;25.18;47.83
31337;BME280;22846;42.654;23.314;2023-02-22T09:46:32;94465.34;;;25.18;48.17
31337;BME280;22846;42.654;23.314;2023-02-22T09:52:02;94472.78;;;25.17;47.93
31337;BME280;22846;42.654;23.314;2023-02-22T09:57:03;94445.34;;;25.08;47.89
31337;BME280;22846;42.654;23.314;2023-02-22T09:59:36;94455.63;;;25.17;47.78
31337;BME280;22846;42.654;23.314;2023-02-22T10:02:17;94453.63;;;25.17;48.18
31337;BME280;22846;42.654;23.314;2023-02-22T10:05:04;94446.22;;;25.18;47.93
31337;BME280;22846;42.654;23.314;2023-02-22T10:07:35;94452.75;;;25.20;47.65
31337;BME280;22846;42.654;23.314;2023-02-22T10:10:03;94441.81;;;25.20;47.81
31337;BME280;22846;42.654;23.314;2023-02-22T10:12:59;94433.16;;;25.22;47.87
31337;BME280;22846;42.654;23.314;2023-02-22T10:26:37;94408.34;;;25.16;47.58
31337;BME280;22846;42.654;23.314;2023-02-22T10:29:16;94410.94;;;25.20;47.74
31337;BME280;22846;42.654;23.314;2023-02-22T10:31:46;94397.41;;;25.16;47.87
31337;BME280;22846;42.654;23.314;2023-02-22T10:34:17;94396.53;;;25.19;47.91
31337;BME280;22846;42.654;23.314;2023-02-22T10:36:47;94387.53;;;25.19;47.87
31337;BME280;22846;42.654;23.314;2023-02-22T10:39:35;94386.78;;;25.18;47.81
31337;BME280;22846;42.654;23.314;2023-02-22T10:42:04;94387.53;;;25.19;47.30
31337;BME280;22846;42.654;23.314;2023-02-22T10:44:35;94384.81;;;25.19;47.86
31337;BME280;22846;42.654;23.314;2023-02-22T10:47:04;94376.75;;;25.15;47.61
31337;BME280;22846;42.654;23.314;2023-02-22T10:49:35;94379.34;;;25.19;47.88
31337;BME280;22846;42.654;23.314;2023-02-22T10:52:05;94374.19;;;25.21;47.67
31337;BME280;22846;42.654;23.314;2023-02-22T10:54:40;94361.84;;;25.16;47.46
31337;BME280;22846;42.654;23.314;2023-02-22T10:57:06;94364.47;;;25.20;47.72
31337;BME280;22846;42.654;23.314;2023-02-22T10:59:33;94367.50;;;25.22;47.74
31337;BME280;22846;42.654;23.314;2023-02-22T11:02:00;94359.44;;;25.18;47.62
31337;BME280;22846;42.654;23.314;2023-02-22T11:04:47;94362.81;;;25.22;47.39
31337;BME280;22846;42.654;23.314;2023-02-22T11:07:30;94353.28;;;25.27;47.33
31337;BME280;22846;42.654;23.314;2023-02-22T11:12:33;94358.59;;;25.30;47.10
31337;BME280;22846;42.654;23.314;2023-02-22T11:17:53;94352.81;;;25.28;47.52
31337;BME280;22846;42.654;23.314;2023-02-22T11:20:23;94342.75;;;25.25;47.67
31337;BME280;22846;42.654;23.314;2023-02-22T11:22:53;94348.09;;;25.29;47.39
31337;BME280;22846;42.654;23.314;2023-02-22T11:25:22;94336.84;;;25.27;47.12
31337;BME280;22846;42.654;23.314;2023-02-22T11:27:49;94335.50;;;25.31;46.95
31337;BME280;22846;42.654;23.314;2023-02-22T11:33:17;94325.97;;;25.36;47.34
31337;BME280;22846;42.654;23.314;2023-02-22T11:35:50;94324.72;;;25.37;47.16
31337;BME280;22846;42.654;23.314;2023-02-22T11:38:36;94318.50;;;25.36;46.93
31337;BME280;22846;42.654;23.314;2023-02-22T11:41:19;94321.69;;;25.35;47.23
31337;BME280;22846;42.654;23.314;2023-02-22T11:43:48;94324.44;;;25.35;47.22
31337;BME280;22846;42.654;23.314;2023-02-22T11:46:26;94318.19;;;25.34;46.84
31337;BME280;22846;42.654;23.314;2023-02-22T11:49:10;94310.59;;;25.38;47.07
31337;BME280;22846;42.654;23.314;2023-02-22T11:54:22;94304.69;;;25.40;46.92
31337;BME280;22846;42.654;23.314;2023-02-22T12:08:57;94304.09;;;25.45;46.46
31337;BME280;22846;42.654;23.314;2023-02-22T12:19:29;94286.94;;;25.53;46.43
31337;BME280;22846;42.654;23.314;2023-02-22T12:22:03;94287.69;;;25.54;46.22
31337;BME280;22846;42.654;23.314;2023-02-22T12:24:37;94284.66;;;25.52;46.48
31337;BME280;22846;42.654;23.314;2023-02-22T12:27:10;94272.78;;;25.55;46.21
31337;BME280;22846;42.654;23.314;2023-02-22T12:29:44;94276.44;;;25.52;46.51
31337;BME280;22846;42.654;23.314;2023-02-22T12:32:24;94277.84;;;25.56;46.19
31337;BME280;22846;42.654;23.314;2023-02-22T12:35:14;94270.38;;;25.57;46.34
31337;BME280;22846;42.654;23.314;2023-02-22T12:37:52;94271.91;;;25.58;46.13
31337;BME280;22846;42.654;23.314;2023-02-22T12:40:45;94272.53;;;25.62;46.17
31337;BME280;22846;42.654;23.314;2023-02-22T12:48:46;94268.88;;;25.64;46.11
31337;BME280;22846;42.654;23.314;2023-02-22T12:53:40;94261.44;;;25.65;46.12
31337;BME280;22846;42.654;23.314;2023-02-22T12:56:23;94262.19;;;25.65;46.01
31337;BME280;22846;42.654;23.314;2023-02-22T13:01:35;94258.22;;;25.66;46.10
31337;BME280;22846;42.654;23.314;2023-02-22T13:04:02;94253.06;;;25.68;46.00
31337;BME280;22846;42.654;23.314;2023-02-22T13:24:23;94248.50;;;25.74;46.03
31337;BME280;22846;42.654;23.314;2023-02-22T13:26:23;94248.06;;;25.76;45.76
31337;BME280;22846;42.654;23.314;2023-02-22T13:29:01;94253.13;;;25.77;45.77
31337;BME280;22846;42.654;23.314;2023-02-22T13:31:39;94242.91;;;25.78;45.59
31337;BME280;22846;42.654;23.314;2023-02-22T13:48:10;94246.44;;;25.87;45.31
31337;BME280;22846;42.654;23.314;2023-02-22T13:53:34;94234.88;;;25.92;45.53
31337;BME280;22846;42.654;23.314;2023-02-22T13:56:03;94232.44;;;25.94;45.28
31337;BME280;22846;42.654;23.314;2023-02-22T13:58:29;94231.97;;;25.96;45.16
31337;BME280;22846;42.654;23.314;2023-02-22T14:00:57;94231.50;;;25.97;45.26
31337;BME280;22846;42.654;23.314;2023-02-22T14:06:04;94238.06;;;26.00;45.25
31337;BME280;22846;42.654;23.314;2023-02-22T14:10:56;94234.72;;;26.05;44.99
31337;BME280;22846;42.654;23.314;2023-02-22T14:13:27;94235.75;;;26.07;45.20
31337;BME280;22846;42.654;23.314;2023-02-22T14:18:26;94228.88;;;25.67;27.64
31337;BME280;22846;42.654;23.314;2023-02-22T14:21:09;94242.41;;;25.62;30.75
31337;BME280;22846;42.654;23.314;2023-02-22T14:23:43;94232.97;;;25.62;35.16
31337;BME280;22846;42.654;23.314;2023-02-22T14:28:49;94231.38;;;25.83;37.85
31337;BME280;22846;42.654;23.314;2023-02-22T14:31:18;94236.69;;;25.95;38.52
31337;BME280;22846;42.654;23.314;2023-02-22T14:36:53;94226.47;;;26.23;39.35
31337;BME280;22846;42.654;23.314;2023-02-22T14:39:40;94228.16;;;26.38;39.35
31337;BME280;22846;42.654;23.314;2023-02-22T14:48:00;94221.50;;;26.80;39.65
31337;BME280;22846;42.654;23.314;2023-02-22T14:53:18;94222.06;;;27.02;39.63
31337;BME280;22846;42.654;23.314;2023-02-22T14:55:55;94213.84;;;27.02;39.54
31337;BME280;22846;42.654;23.314;2023-02-22T14:58:30;94230.44;;;27.08;39.46
31337;BME280;22846;42.654;23.314;2023-02-22T15:00:58;94228.59;;;27.05;39.66
31337;BME280;22846;42.654;23.314;2023-02-22T15:03:33;94225.88;;;26.96;39.96
31337;BME280;22846;42.654;23.314;2023-02-22T15:06:22;94202.34;;;26.71;40.35
31337;BME280;22846;42.654;23.314;2023-02-22T15:09:20;94220.63;;;26.74;40.44
31337;BME280;22846;42.654;23.314;2023-02-22T15:12:14;94221.13;;;26.64;40.82
31337;BME280;22846;42.654;23.314;2023-02-22T15:14:42;94216.88;;;26.54;41.37
31337;BME280;22846;42.654;23.314;2023-02-22T15:17:18;94201.19;;;26.28;41.22
31337;BME280;22846;42.654;23.314;2023-02-22T15:19:45;94230.56;;;26.36;41.70
31337;BME280;22846;42.654;23.314;2023-02-22T15:22:24;94228.75;;;26.24;42.04
31337;BME280;22846;42.654;23.314;2023-02-22T15:25:02;94227.22;;;26.14;42.23
31337;BME280;22846;42.654;23.314;2023-02-22T15:27:28;94227.25;;;26.05;42.68
31337;BME280;22846;42.654;23.314;2023-02-22T15:29:58;94220.88;;;25.90;42.86
31337;BME280;22846;42.654;23.314;2023-02-22T15:32:38;94228.63;;;25.92;43.76
31337;BME280;22846;42.654;23.314;2023-02-22T15:35:16;94229.69;;;25.85;43.85